Time;durP1;ratioP1;P1;durP2;ratioP2;P2;SDS_P1;SDS_P2;PMS_P1;PMS_P2;Temp;Humidity;BMP_temperature;BMP_pressure;BME280_temperature;BME280_humidity;BME280_pressure;Samples;Min_cycle;Max_cycle;Signal;HPM_P1;HPM_P2
2022/05/08 00:01:09;;;;;;;2.23;1.93;;;;;;;;;;5010569;28;20192;-66
2022/05/08 00:03:36;;;;;;;2.23;1.87;;;;;;;;;;5002956;28;20204;-65
2022/05/08 00:06:10;;;;;;;1.70;1.60;;;;;;;;;;5007879;28;20270;-65
2022/05/08 00:08:38;;;;;;;1.87;1.77;;;;;;;;;;5009755;28;20207;-67
2022/05/08 00:11:05;;;;;;;3.53;2.00;;;;;;;;;;5007776;28;20208;-65
2022/05/08 00:13:35;;;;;;;2.10;1.90;;;;;;;;;;5012203;28;20192;-65
2022/05/08 00:16:02;;;;;;;3.60;2.30;;;;;;;;;;4985312;28;20231;-66
2022/05/08 00:18:30;;;;;;;2.00;1.90;;;;;;;;;;5007070;28;20195;-65
2022/05/08 00:20:57;;;;;;;2.53;1.80;;;;;;;;;;5006400;28;20230;-65
2022/05/08 00:23:24;;;;;;;3.67;1.90;;;;;;;;;;5013976;28;20203;-66
2022/05/08 00:25:51;;;;;;;1.87;1.77;;;;;;;;;;5008008;28;20680;-65
2022/05/08 00:28:19;;;;;;;2.27;1.90;;;;;;;;;;4988022;28;20825;-65
2022/05/08 00:30:46;;;;;;;4.23;2.00;;;;;;;;;;5007150;28;20610;-65
2022/05/08 00:33:13;;;;;;;3.17;2.37;;;;;;;;;;4993514;28;20237;-65
2022/05/08 00:35:40;;;;;;;1.93;1.83;;;;;;;;;;5013326;28;20278;-65
2022/05/08 00:38:08;;;;;;;1.90;1.70;;;;;;;;;;5004612;28;20202;-65
2022/05/08 00:40:35;;;;;;;2.73;2.10;;;;;;;;;;5009925;28;20278;-65
2022/05/08 00:43:21;;;;;;;2.47;2.03;;;;;;;;;;4990230;28;20272;-65
2022/05/08 00:45:49;;;;;;;2.50;1.90;;;;;;;;;;4996922;28;20327;-65
2022/05/08 00:48:16;;;;;;;3.30;2.50;;;;;;;;;;5003209;28;20238;-65
2022/05/08 00:50:43;;;;;;;2.93;2.07;;;;;;;;;;4999373;28;20278;-65
2022/05/08 00:53:11;;;;;;;2.43;2.10;;;;;;;;;;5008234;28;20441;-65
2022/05/08 00:55:38;;;;;;;3.60;2.00;;;;;;;;;;5006894;28;20195;-65
2022/05/08 00:58:06;;;;;;;2.43;2.00;;;;;;;;;;5004872;28;20861;-65
2022/05/08 01:00:33;;;;;;;3.00;2.17;;;;;;;;;;5007558;28;20200;-65
2022/05/08 01:03:00;;;;;;;2.10;1.90;;;;;;;;;;5004316;28;20219;-66
2022/05/08 01:05:27;;;;;;;2.57;2.37;;;;;;;;;;5014844;28;20270;-66
2022/05/08 01:07:55;;;;;;;2.30;2.03;;;;;;;;;;5003943;28;20270;-65
2022/05/08 01:10:22;;;;;;;2.77;2.10;;;;;;;;;;5008995;28;20199;-65
2022/05/08 01:12:50;;;;;;;2.97;2.30;;;;;;;;;;5006665;28;20192;-65
2022/05/08 01:15:18;;;;;;;2.13;1.80;;;;;;;;;;5014777;28;20791;-65
2022/05/08 01:17:46;;;;;;;2.53;2.33;;;;;;;;;;5006383;28;20223;-65
2022/05/08 01:20:13;;;;;;;3.07;2.30;;;;;;;;;;5011017;28;20188;-65
2022/05/08 01:22:40;;;;;;;4.43;2.40;;;;;;;;;;5006675;28;20203;-66
2022/05/08 01:25:08;;;;;;;3.30;2.33;;;;;;;;;;5008657;28;20204;-65
2022/05/08 01:27:35;;;;;;;2.50;2.27;;;;;;;;;;5004317;28;20231;-65
2022/05/08 01:30:02;;;;;;;4.80;2.63;;;;;;;;;;5014293;28;20266;-65
2022/05/08 01:32:30;;;;;;;2.97;2.50;;;;;;;;;;5006630;28;20664;-65
2022/05/08 01:34:57;;;;;;;2.87;2.43;;;;;;;;;;5011384;28;20643;-65
2022/05/08 01:37:24;;;;;;;3.20;2.50;;;;;;;;;;5005874;28;20651;-65
2022/05/08 01:39:51;;;;;;;3.23;2.60;;;;;;;;;;5003777;28;20218;-65
2022/05/08 01:42:19;;;;;;;2.73;2.50;;;;;;;;;;4988266;28;20203;-65
2022/05/08 01:44:51;;;;;;;2.90;2.60;;;;;;;;;;5014341;28;20667;-65
2022/05/08 01:50:05;;;;;;;5.03;2.53;;;;;;;;;;5009949;28;20249;-65
2022/05/08 01:52:34;;;;;;;5.17;2.77;;;;;;;;;;5003662;28;20231;-66
2022/05/08 01:55:04;;;;;;;4.17;2.30;;;;;;;;;;5018069;28;20209;-65
2022/05/08 01:57:37;;;;;;;2.90;2.60;;;;;;;;;;5007009;28;20211;-65
2022/05/08 02:00:10;;;;;;;4.77;2.83;;;;;;;;;;5007465;28;20199;-65
2022/05/08 02:02:38;;;;;;;2.97;2.70;;;;;;;;;;5005244;28;20234;-66
2022/05/08 02:05:11;;;;;;;3.30;2.60;;;;;;;;;;4992419;28;20290;-65
2022/05/08 02:07:47;;;;;;;2.90;2.70;;;;;;;;;;4990617;28;20217;-65
2022/05/08 02:10:31;;;;;;;3.10;2.70;;;;;;;;;;5012565;28;20305;-65
2022/05/08 02:13:04;;;;;;;2.70;2.50;;;;;;;;;;5007927;28;20207;-65
2022/05/08 02:15:32;;;;;;;4.00;2.67;;;;;;;;;;4993384;28;20642;-65
2022/05/08 02:18:03;;;;;;;3.07;2.60;;;;;;;;;;5004565;28;20227;-65
2022/05/08 02:20:31;;;;;;;3.97;2.80;;;;;;;;;;5008802;28;20725;-65
2022/05/08 02:22:58;;;;;;;3.33;3.00;;;;;;;;;;5007034;28;20217;-65
2022/05/08 02:25:25;;;;;;;2.93;2.63;;;;;;;;;;5014444;28;20291;-65
2022/05/08 02:27:53;;;;;;;3.40;3.10;;;;;;;;;;5000902;28;20625;-65
2022/05/08 02:30:21;;;;;;;4.57;2.87;;;;;;;;;;5010476;28;20200;-65
2022/05/08 02:32:49;;;;;;;3.13;2.70;;;;;;;;;;5007525;28;20204;-65
2022/05/08 02:35:17;;;;;;;4.20;3.00;;;;;;;;;;5009466;28;20238;-65
2022/05/08 02:37:44;;;;;;;4.30;2.80;;;;;;;;;;5009320;28;20642;-65
2022/05/08 02:40:11;;;;;;;4.33;2.90;;;;;;;;;;5011217;28;20475;-65
2022/05/08 02:42:39;;;;;;;2.70;2.33;;;;;;;;;;5009379;28;20265;-65
2022/05/08 02:45:08;;;;;;;2.67;2.47;;;;;;;;;;5011137;28;20206;-65
2022/05/08 02:47:36;;;;;;;3.90;2.93;;;;;;;;;;5009315;28;20219;-65
2022/05/08 02:50:04;;;;;;;3.30;2.90;;;;;;;;;;5004462;28;20265;-65
2022/05/08 02:52:31;;;;;;;4.03;2.83;;;;;;;;;;5004846;28;20227;-62
2022/05/08 02:58:32;;;;;;;17.80;3.30;;;;;;;;;;4988620;28;20203;-64
2022/05/08 02:58:35;;;;;;;4.53;2.90;;;;;;;;;;5017825;28;20637;-63
2022/05/08 03:00:37;;;;;;;3.73;2.70;;;;;;;;;;5000195;28;20226;-63
2022/05/08 03:03:05;;;;;;;4.43;2.73;;;;;;;;;;5014106;28;20273;-64
2022/05/08 03:05:33;;;;;;;3.40;2.47;;;;;;;;;;5007765;28;20236;-63
2022/05/08 03:08:01;;;;;;;4.43;2.80;;;;;;;;;;5004936;28;20216;-64
2022/05/08 03:10:28;;;;;;;3.00;2.50;;;;;;;;;;5010365;28;20200;-63
2022/05/08 03:12:55;;;;;;;4.50;3.10;;;;;;;;;;5009477;28;20282;-62
2022/05/08 03:15:23;;;;;;;4.03;2.60;;;;;;;;;;5004154;28;20270;-63
2022/05/08 03:17:51;;;;;;;3.23;2.80;;;;;;;;;;5006832;28;20242;-62
2022/05/08 03:20:19;;;;;;;2.90;2.70;;;;;;;;;;5012879;28;20195;-64
2022/05/08 03:22:50;;;;;;;3.80;2.80;;;;;;;;;;5014081;28;20592;-62
2022/05/08 03:25:26;;;;;;;4.00;2.80;;;;;;;;;;5008059;28;20218;-62
2022/05/08 03:27:54;;;;;;;3.73;3.00;;;;;;;;;;5002235;28;20231;-62
2022/05/08 03:30:25;;;;;;;3.70;2.90;;;;;;;;;;5011855;28;20203;-62
2022/05/08 03:32:57;;;;;;;7.87;3.30;;;;;;;;;;5003907;28;20229;-61
2022/05/08 03:35:27;;;;;;;3.00;2.77;;;;;;;;;;4994041;28;20215;-63
2022/05/08 03:37:57;;;;;;;3.70;2.77;;;;;;;;;;5005075;28;20249;-62
2022/05/08 03:40:26;;;;;;;2.93;2.63;;;;;;;;;;5008265;28;20553;-62
2022/05/08 03:42:57;;;;;;;3.50;2.80;;;;;;;;;;5007542;28;20246;-62
2022/05/08 03:45:33;;;;;;;3.80;2.80;;;;;;;;;;5006968;28;20203;-62
2022/05/08 03:48:05;;;;;;;3.30;2.50;;;;;;;;;;5002927;28;20214;-62
2022/05/08 03:50:37;;;;;;;3.10;2.80;;;;;;;;;;5005299;28;20216;-62
2022/05/08 03:53:07;;;;;;;4.07;2.67;;;;;;;;;;5008032;28;20204;-63
2022/05/08 03:58:34;;;;;;;3.63;2.90;;;;;;;;;;5016201;28;20227;-62
2022/05/08 04:01:06;;;;;;;3.03;2.60;;;;;;;;;;5026597;28;20202;-62
2022/05/08 04:03:35;;;;;;;2.87;2.67;;;;;;;;;;5005094;28;20274;-62
2022/05/08 04:06:04;;;;;;;3.03;2.70;;;;;;;;;;4986461;28;20244;-61
2022/05/08 04:08:36;;;;;;;3.03;2.73;;;;;;;;;;5021603;28;20717;-63
2022/05/08 04:11:06;;;;;;;3.20;2.90;;;;;;;;;;5011023;28;20215;-63
2022/05/08 04:13:35;;;;;;;5.50;3.17;;;;;;;;;;5006472;28;20606;-63
2022/05/08 04:16:21;;;;;;;4.67;2.63;;;;;;;;;;5002665;28;20220;-63
2022/05/08 04:18:53;;;;;;;3.77;3.00;;;;;;;;;;5006267;28;20207;-63
2022/05/08 04:21:25;;;;;;;3.73;3.00;;;;;;;;;;5008521;28;20718;-62
2022/05/08 04:26:39;;;;;;;3.30;2.97;;;;;;;;;;5005301;28;20637;-63
2022/05/08 04:29:06;;;;;;;3.50;2.97;;;;;;;;;;5006946;28;20188;-63
2022/05/08 04:31:33;;;;;;;4.13;3.10;;;;;;;;;;5006990;28;20889;-63
2022/05/08 04:34:01;;;;;;;2.87;2.63;;;;;;;;;;5002191;28;20769;-64
2022/05/08 04:36:30;;;;;;;5.43;3.03;;;;;;;;;;4990752;28;20589;-62
2022/05/08 04:39:01;;;;;;;3.70;2.97;;;;;;;;;;4989370;28;20212;-62
2022/05/08 04:41:32;;;;;;;4.27;3.00;;;;;;;;;;5009216;28;20621;-63
2022/05/08 04:44:02;;;;;;;3.50;3.00;;;;;;;;;;5003290;28;20202;-61
2022/05/08 04:46:32;;;;;;;3.97;3.00;;;;;;;;;;5010390;28;20989;-62
2022/05/08 04:49:05;;;;;;;6.67;3.03;;;;;;;;;;5007312;28;20635;-63
2022/05/08 04:51:34;;;;;;;6.50;3.10;;;;;;;;;;5004449;28;20295;-64
2022/05/08 04:54:05;;;;;;;5.07;2.87;;;;;;;;;;5005338;28;20231;-63
2022/05/08 04:56:34;;;;;;;3.00;2.57;;;;;;;;;;4996172;28;20197;-61
2022/05/08 04:59:04;;;;;;;5.27;3.10;;;;;;;;;;5007287;28;20584;-62
2022/05/08 05:01:34;;;;;;;5.00;3.10;;;;;;;;;;5009849;28;21461;-63
2022/05/08 05:04:02;;;;;;;4.77;2.80;;;;;;;;;;5001867;28;20298;-62
2022/05/08 05:06:34;;;;;;;5.93;2.83;;;;;;;;;;4990182;28;20200;-62
2022/05/08 05:09:04;;;;;;;4.40;3.10;;;;;;;;;;4989368;28;20215;-62
2022/05/08 05:11:34;;;;;;;3.83;3.00;;;;;;;;;;4995154;28;20636;-64
2022/05/08 05:14:06;;;;;;;4.07;3.13;;;;;;;;;;4984869;28;20192;-62
2022/05/08 05:16:37;;;;;;;4.10;2.90;;;;;;;;;;5007406;28;20196;-62
2022/05/08 05:19:07;;;;;;;4.03;2.83;;;;;;;;;;5007142;28;20223;-61
2022/05/08 05:21:37;;;;;;;4.17;3.00;;;;;;;;;;5010338;28;20621;-62
2022/05/08 05:24:07;;;;;;;4.10;3.17;;;;;;;;;;5007016;28;20214;-62
2022/05/08 05:26:39;;;;;;;5.13;2.60;;;;;;;;;;5008521;28;20272;-64
2022/05/08 05:29:11;;;;;;;3.73;2.90;;;;;;;;;;5006446;28;20199;-61
2022/05/08 05:31:44;;;;;;;3.23;2.70;;;;;;;;;;5005730;28;20195;-61
2022/05/08 05:34:14;;;;;;;3.20;2.50;;;;;;;;;;5003083;28;20751;-61
2022/05/08 05:36:45;;;;;;;4.50;2.80;;;;;;;;;;5009767;28;20246;-62
2022/05/08 05:39:14;;;;;;;4.57;3.10;;;;;;;;;;5005772;28;20845;-61
2022/05/08 05:41:45;;;;;;;5.20;3.20;;;;;;;;;;4991734;28;20179;-61
2022/05/08 05:44:14;;;;;;;3.40;2.73;;;;;;;;;;5004203;28;20191;-62
2022/05/08 05:49:27;;;;;;;4.97;2.80;;;;;;;;;;5011006;28;20195;-62
2022/05/08 05:51:56;;;;;;;5.73;3.53;;;;;;;;;;5006391;28;20214;-62
2022/05/08 05:54:24;;;;;;;4.07;2.50;;;;;;;;;;5007296;28;20207;-62
2022/05/08 05:56:51;;;;;;;5.07;2.87;;;;;;;;;;5007511;28;20820;-62
2022/05/08 05:59:18;;;;;;;6.33;3.30;;;;;;;;;;5014283;28;20195;-62
2022/05/08 06:02:05;;;;;;;4.87;2.73;;;;;;;;;;5004085;28;20677;-62
2022/05/08 06:04:33;;;;;;;5.77;3.00;;;;;;;;;;5005413;28;20235;-62
2022/05/08 06:07:00;;;;;;;4.63;2.83;;;;;;;;;;5011871;28;20769;-62
2022/05/08 06:09:27;;;;;;;5.30;3.00;;;;;;;;;;5010951;28;20219;-62
2022/05/08 06:11:54;;;;;;;5.13;3.00;;;;;;;;;;5006915;28;20204;-61
2022/05/08 06:14:21;;;;;;;5.53;3.00;;;;;;;;;;5007858;28;20621;-62
2022/05/08 06:16:49;;;;;;;4.07;2.43;;;;;;;;;;5010064;28;20199;-62
2022/05/08 06:19:16;;;;;;;5.53;2.73;;;;;;;;;;5016292;28;20235;-62
2022/05/08 06:21:47;;;;;;;6.77;3.00;;;;;;;;;;5010578;28;20199;-62
2022/05/08 06:24:14;;;;;;;6.10;3.27;;;;;;;;;;5010228;28;20195;-62
2022/05/08 06:26:41;;;;;;;6.00;2.80;;;;;;;;;;5007422;28;20223;-62
2022/05/08 06:29:09;;;;;;;6.33;3.23;;;;;;;;;;5020399;28;20208;-62
2022/05/08 06:31:37;;;;;;;7.30;3.13;;;;;;;;;;5008612;28;20208;-63
2022/05/08 06:34:10;;;;;;;5.10;3.10;;;;;;;;;;5013355;28;20200;-62
2022/05/08 06:36:41;;;;;;;5.40;3.00;;;;;;;;;;5008422;28;20207;-62
2022/05/08 06:39:10;;;;;;;4.63;2.60;;;;;;;;;;5008634;28;20332;-62
2022/05/08 06:41:39;;;;;;;4.50;2.90;;;;;;;;;;5009042;28;20210;-62
2022/05/08 06:44:08;;;;;;;4.83;2.77;;;;;;;;;;4999023;28;20214;-61
2022/05/08 06:46:40;;;;;;;5.67;3.27;;;;;;;;;;4993470;28;20192;-62
2022/05/08 06:49:10;;;;;;;4.50;2.70;;;;;;;;;;5006188;28;20203;-62
2022/05/08 06:51:43;;;;;;;4.97;2.97;;;;;;;;;;5007759;28;20212;-62
2022/05/08 06:54:14;;;;;;;5.00;2.50;;;;;;;;;;5009143;28;20227;-62
2022/05/08 06:56:47;;;;;;;4.33;2.57;;;;;;;;;;5009521;28;20192;-61
2022/05/08 07:02:10;;;;;;;2.83;2.43;;;;;;;;;;5005090;28;20176;-63
2022/05/08 07:04:40;;;;;;;4.60;2.60;;;;;;;;;;5010144;28;20240;-63
2022/05/08 07:07:13;;;;;;;4.87;2.53;;;;;;;;;;5009734;28;20195;-64
2022/05/08 07:09:44;;;;;;;4.10;2.40;;;;;;;;;;5014561;28;20191;-64
2022/05/08 07:12:15;;;;;;;3.33;2.60;;;;;;;;;;4990462;28;20204;-63
2022/05/08 07:14:46;;;;;;;5.10;2.73;;;;;;;;;;5022400;28;20218;-64
2022/05/08 07:17:17;;;;;;;5.50;3.17;;;;;;;;;;4990149;28;20169;-62
2022/05/08 07:19:49;;;;;;;4.70;2.60;;;;;;;;;;5028666;28;20518;-63
2022/05/08 07:22:19;;;;;;;4.60;2.37;;;;;;;;;;4996202;28;20215;-62
2022/05/08 07:24:49;;;;;;;4.33;2.60;;;;;;;;;;5025877;28;20207;-62
2022/05/08 07:27:17;;;;;;;5.20;3.00;;;;;;;;;;5002690;28;20654;-62
2022/05/08 07:29:45;;;;;;;4.53;2.70;;;;;;;;;;5027164;28;20660;-62
2022/05/08 07:32:19;;;;;;;4.63;2.93;;;;;;;;;;5015466;28;20200;-62
2022/05/08 07:37:36;;;;;;;5.63;2.53;;;;;;;;;;4988701;28;20610;-63
2022/05/08 07:40:04;;;;;;;4.33;2.73;;;;;;;;;;4990626;28;20262;-63
2022/05/08 07:42:31;;;;;;;4.37;2.67;;;;;;;;;;5002843;28;20226;-63
2022/05/08 07:44:58;;;;;;;6.37;2.97;;;;;;;;;;5001286;28;20192;-63
2022/05/08 07:47:26;;;;;;;5.50;2.30;;;;;;;;;;5005030;28;20220;-62
2022/05/08 07:49:53;;;;;;;5.57;2.77;;;;;;;;;;5003060;28;20250;-62
2022/05/08 07:52:20;;;;;;;4.60;2.37;;;;;;;;;;5012957;28;20191;-63
2022/05/08 07:54:47;;;;;;;6.07;2.73;;;;;;;;;;4988395;28;20203;-63
2022/05/08 07:57:15;;;;;;;5.30;2.70;;;;;;;;;;5004769;28;20184;-62
2022/05/08 07:59:42;;;;;;;4.27;2.60;;;;;;;;;;5004205;28;20638;-62
2022/05/08 08:02:09;;;;;;;5.43;2.40;;;;;;;;;;4997697;28;20204;-62
2022/05/08 08:04:36;;;;;;;5.50;2.30;;;;;;;;;;5005411;28;20696;-62
2022/05/08 08:07:04;;;;;;;6.23;2.60;;;;;;;;;;5005696;28;20192;-63
2022/05/08 08:09:31;;;;;;;6.90;3.10;;;;;;;;;;5006428;28;20433;-62
2022/05/08 08:11:58;;;;;;;5.60;2.63;;;;;;;;;;5004543;28;20212;-63
2022/05/08 08:14:25;;;;;;;5.53;2.90;;;;;;;;;;5006673;28;20215;-62
2022/05/08 08:17:12;;;;;;;8.27;2.63;;;;;;;;;;5005164;28;20196;-62
2022/05/08 08:19:39;;;;;;;7.67;3.07;;;;;;;;;;5004588;28;20708;-62
2022/05/08 08:22:09;;;;;;;5.27;2.30;;;;;;;;;;5001423;28;20254;-62
2022/05/08 08:24:40;;;;;;;4.23;2.30;;;;;;;;;;5003537;28;20207;-62
2022/05/08 08:27:11;;;;;;;6.23;2.40;;;;;;;;;;5001881;28;20226;-62
2022/05/08 08:29:42;;;;;;;6.77;2.97;;;;;;;;;;4995166;28;20208;-62
2022/05/08 08:32:15;;;;;;;7.43;2.87;;;;;;;;;;4983264;28;20200;-62
2022/05/08 08:34:47;;;;;;;4.77;2.70;;;;;;;;;;5001504;28;20203;-63
2022/05/08 08:37:15;;;;;;;6.93;2.80;;;;;;;;;;5004250;28;20200;-62
2022/05/08 08:39:46;;;;;;;5.07;2.87;;;;;;;;;;4996972;28;20234;-63
2022/05/08 08:42:30;;;;;;;7.73;2.97;;;;;;;;;;4984697;28;20188;-62
2022/05/08 08:47:55;;;;;;;6.03;3.07;;;;;;;;;;5003055;28;20207;-62
2022/05/08 08:50:26;;;;;;;5.80;2.90;;;;;;;;;;5002078;28;20235;-62
2022/05/08 08:52:54;;;;;;;6.70;2.97;;;;;;;;;;5009264;28;20203;-62
2022/05/08 08:55:22;;;;;;;3.90;2.60;;;;;;;;;;5006660;28;20198;-62
2022/05/08 08:57:50;;;;;;;6.43;2.90;;;;;;;;;;5006332;28;20208;-62
2022/05/08 09:00:21;;;;;;;7.33;2.93;;;;;;;;;;5005552;28;20211;-64
2022/05/08 09:02:54;;;;;;;7.90;3.13;;;;;;;;;;5011956;28;20235;-62
2022/05/08 09:05:26;;;;;;;12.00;3.43;;;;;;;;;;5004714;28;20782;-62
2022/05/08 09:07:56;;;;;;;11.37;3.73;;;;;;;;;;5003210;28;20210;-62
2022/05/08 09:10:35;;;;;;;11.00;4.60;;;;;;;;;;5000801;28;20191;-63
2022/05/08 09:13:09;;;;;;;11.67;3.70;;;;;;;;;;5008111;28;21203;-63
2022/05/08 09:15:42;;;;;;;9.97;3.53;;;;;;;;;;4999760;28;20217;-63
2022/05/08 09:18:14;;;;;;;13.60;3.53;;;;;;;;;;5004695;28;20265;-63
2022/05/08 09:20:51;;;;;;;7.67;3.47;;;;;;;;;;5001830;28;20257;-62
2022/05/08 09:23:22;;;;;;;13.37;4.03;;;;;;;;;;5001472;28;20899;-63
2022/05/08 09:26:08;;;;;;;9.60;3.67;;;;;;;;;;5002340;28;20187;-63
2022/05/08 09:28:46;;;;;;;8.53;3.63;;;;;;;;;;5006085;28;20196;-63
2022/05/08 09:31:26;;;;;;;8.73;3.20;;;;;;;;;;4989562;28;20207;-63
2022/05/08 09:34:03;;;;;;;11.33;4.00;;;;;;;;;;5008482;28;20191;-63
2022/05/08 09:36:34;;;;;;;9.40;3.50;;;;;;;;;;4988784;28;20222;-64
2022/05/08 09:39:21;;;;;;;9.70;3.20;;;;;;;;;;4996281;28;20298;-63
2022/05/08 09:41:48;;;;;;;12.67;4.10;;;;;;;;;;5006969;28;20552;-64
2022/05/08 09:44:16;;;;;;;9.13;3.13;;;;;;;;;;5020107;28;20191;-64
2022/05/08 09:46:44;;;;;;;5.53;3.20;;;;;;;;;;5007298;28;20262;-63
2022/05/08 09:49:12;;;;;;;8.40;3.23;;;;;;;;;;5002499;28;20218;-63
2022/05/08 09:51:42;;;;;;;10.60;3.40;;;;;;;;;;5004468;28;20219;-63
2022/05/08 09:54:09;;;;;;;9.67;3.37;;;;;;;;;;5010664;28;20213;-63
2022/05/08 09:56:37;;;;;;;11.00;3.87;;;;;;;;;;5005861;28;20203;-63
2022/05/08 09:59:07;;;;;;;10.63;3.27;;;;;;;;;;5010581;28;20262;-63
2022/05/08 10:01:34;;;;;;;10.77;3.20;;;;;;;;;;5005146;28;20806;-63
2022/05/08 10:04:03;;;;;;;9.00;3.10;;;;;;;;;;5001288;28;20246;-63
2022/05/08 10:06:33;;;;;;;7.67;3.17;;;;;;;;;;4999617;28;20254;-63
2022/05/08 10:14:49;;;;;;;5.37;2.67;;;;;;;;;;4982235;28;20219;-62
2022/05/08 10:17:30;;;;;;;10.10;3.10;;;;;;;;;;4997160;28;20215;-61
2022/05/08 10:20:03;;;;;;;10.43;3.30;;;;;;;;;;4990253;28;20694;-61
2022/05/08 10:22:52;;;;;;;10.87;3.40;;;;;;;;;;4993906;28;20249;-62
2022/05/08 10:25:30;;;;;;;6.13;2.57;;;;;;;;;;4992559;28;20186;-62
2022/05/08 10:28:08;;;;;;;8.83;2.87;;;;;;;;;;4979957;28;20278;-62
2022/05/08 10:30:41;;;;;;;10.50;3.17;;;;;;;;;;5005454;28;20200;-62
2022/05/08 10:33:14;;;;;;;12.53;3.17;;;;;;;;;;4999279;28;20195;-61
2022/05/08 10:36:04;;;;;;;7.37;2.70;;;;;;;;;;5002372;28;20641;-62
2022/05/08 10:38:41;;;;;;;8.93;2.63;;;;;;;;;;4999374;28;20303;-62
2022/05/08 10:41:32;;;;;;;6.00;2.57;;;;;;;;;;5002643;28;20214;-62
2022/05/08 10:44:21;;;;;;;8.07;2.67;;;;;;;;;;4988065;28;20242;-61
2022/05/08 10:46:52;;;;;;;9.13;2.67;;;;;;;;;;4989023;28;20226;-61
2022/05/08 10:49:20;;;;;;;6.53;2.47;;;;;;;;;;5003789;28;20723;-62
2022/05/08 10:51:52;;;;;;;4.80;2.60;;;;;;;;;;5001884;28;20211;-62
2022/05/08 10:54:22;;;;;;;7.03;2.90;;;;;;;;;;5008056;28;20227;-62
2022/05/08 10:56:51;;;;;;;8.17;2.57;;;;;;;;;;5002561;28;20204;-62
2022/05/08 10:59:45;;;;;;;5.00;2.30;;;;;;;;;;5008888;28;20220;-62
2022/05/08 11:02:16;;;;;;;7.80;2.70;;;;;;;;;;5003139;28;20562;-62
2022/05/08 11:04:52;;;;;;;6.60;2.77;;;;;;;;;;5011407;28;20769;-62
2022/05/08 11:07:24;;;;;;;3.97;2.37;;;;;;;;;;4994420;28;20272;-62
2022/05/08 11:09:56;;;;;;;6.07;2.40;;;;;;;;;;5010793;28;20206;-61
2022/05/08 11:12:24;;;;;;;5.27;2.27;;;;;;;;;;5009577;28;20199;-62
2022/05/08 11:15:09;;;;;;;5.30;2.13;;;;;;;;;;5012653;28;20572;-62
2022/05/08 11:17:39;;;;;;;5.30;2.40;;;;;;;;;;5006193;28;20215;-62
2022/05/08 11:20:09;;;;;;;4.70;2.37;;;;;;;;;;5006673;28;20226;-62
2022/05/08 11:22:55;;;;;;;4.20;2.20;;;;;;;;;;5008788;28;20210;-62
2022/05/08 11:25:25;;;;;;;5.80;2.90;;;;;;;;;;5004703;28;20638;-62
2022/05/08 11:27:56;;;;;;;4.73;2.37;;;;;;;;;;5003642;28;20207;-61
2022/05/08 11:30:28;;;;;;;7.97;2.83;;;;;;;;;;5029240;28;20573;-61
2022/05/08 11:36:06;;;;;;;5.47;2.53;;;;;;;;;;5019261;28;20206;-61
2022/05/08 11:38:50;;;;;;;5.70;2.70;;;;;;;;;;4994972;28;20215;-62
2022/05/08 11:41:20;;;;;;;4.53;2.23;;;;;;;;;;4998635;28;20517;-62
2022/05/08 11:43:50;;;;;;;4.63;2.70;;;;;;;;;;5008975;28;20207;-61
2022/05/08 11:46:45;;;;;;;4.70;2.40;;;;;;;;;;5011744;28;20199;-61
2022/05/08 11:49:17;;;;;;;5.17;2.77;;;;;;;;;;5024762;28;20200;-62
2022/05/08 11:51:49;;;;;;;3.57;2.13;;;;;;;;;;5006373;28;20265;-62
2022/05/08 11:54:21;;;;;;;5.77;2.87;;;;;;;;;;5012188;28;20199;-62
2022/05/08 11:56:52;;;;;;;3.77;2.43;;;;;;;;;;5007685;28;20532;-62
2022/05/08 11:59:23;;;;;;;4.77;2.33;;;;;;;;;;4995106;28;20215;-62
2022/05/08 12:01:56;;;;;;;3.97;2.17;;;;;;;;;;5003898;28;20196;-62
2022/05/08 12:04:29;;;;;;;4.40;2.40;;;;;;;;;;5011434;28;20227;-62
2022/05/08 12:07:03;;;;;;;4.13;2.23;;;;;;;;;;4998331;28;20198;-62
2022/05/08 12:09:41;;;;;;;4.70;2.73;;;;;;;;;;5000294;28;20230;-62
2022/05/08 12:12:22;;;;;;;4.93;2.50;;;;;;;;;;5006144;28;20277;-62
2022/05/08 12:15:01;;;;;;;4.13;2.10;;;;;;;;;;5007259;28;20231;-62
2022/05/08 12:17:44;;;;;;;4.83;2.33;;;;;;;;;;5007898;28;20246;-62
2022/05/08 12:20:28;;;;;;;4.30;2.10;;;;;;;;;;5007141;28;20223;-62
2022/05/08 12:23:03;;;;;;;6.27;2.67;;;;;;;;;;5008356;28;20180;-63
2022/05/08 12:25:45;;;;;;;7.03;2.63;;;;;;;;;;5025434;28;20191;-63
2022/05/08 12:28:16;;;;;;;9.03;3.00;;;;;;;;;;5023318;28;20218;-63
2022/05/08 12:30:43;;;;;;;5.77;2.50;;;;;;;;;;5022893;28;20625;-64
2022/05/08 12:33:10;;;;;;;4.73;2.17;;;;;;;;;;5008698;28;20222;-62
2022/05/08 12:35:38;;;;;;;5.70;2.30;;;;;;;;;;5002130;28;20693;-62
2022/05/08 12:38:05;;;;;;;4.70;2.30;;;;;;;;;;5002833;28;20669;-62
2022/05/08 12:40:32;;;;;;;4.00;1.90;;;;;;;;;;5013410;28;20219;-63
2022/05/08 12:43:03;;;;;;;4.10;2.10;;;;;;;;;;4990804;28;20214;-63
2022/05/08 12:45:37;;;;;;;4.43;2.03;;;;;;;;;;5012346;28;20204;-64
2022/05/08 12:48:11;;;;;;;5.33;2.53;;;;;;;;;;5012536;28;20630;-63
2022/05/08 12:50:38;;;;;;;7.03;2.50;;;;;;;;;;5004955;28;20274;-64
2022/05/08 12:53:05;;;;;;;7.53;2.63;;;;;;;;;;5022561;28;20259;-64
2022/05/08 12:55:34;;;;;;;3.47;1.80;;;;;;;;;;5007817;28;20246;-64
2022/05/08 13:00:55;;;;;;;7.20;2.70;;;;;;;;;;5009377;28;20208;-63
2022/05/08 13:03:25;;;;;;;6.33;1.93;;;;;;;;;;4986813;28;20282;-63
2022/05/08 13:05:54;;;;;;;7.00;2.13;;;;;;;;;;5001955;28;20258;-63
2022/05/08 13:08:26;;;;;;;6.67;2.17;;;;;;;;;;5004331;28;20368;-63
2022/05/08 13:10:54;;;;;;;13.20;2.83;;;;;;;;;;5013811;28;20199;-63
2022/05/08 13:13:21;;;;;;;8.00;2.97;;;;;;;;;;4989858;28;20200;-63
2022/05/08 13:15:48;;;;;;;6.27;3.13;;;;;;;;;;5009460;28;20219;-63
2022/05/08 13:18:15;;;;;;;7.73;2.67;;;;;;;;;;5007751;28;20204;-63
2022/05/08 13:20:42;;;;;;;11.80;2.83;;;;;;;;;;5003296;28;20719;-63
2022/05/08 13:23:10;;;;;;;8.27;3.03;;;;;;;;;;5007123;28;20286;-63
2022/05/08 13:25:38;;;;;;;11.13;3.23;;;;;;;;;;5017197;28;20557;-63
2022/05/08 13:28:05;;;;;;;11.33;3.50;;;;;;;;;;4995420;28;20211;-63
2022/05/08 13:30:32;;;;;;;8.73;3.20;;;;;;;;;;5006831;28;20207;-63
2022/05/08 13:32:59;;;;;;;9.97;3.50;;;;;;;;;;5001727;28;20939;-63
2022/05/08 13:35:27;;;;;;;10.37;2.97;;;;;;;;;;5005314;28;20507;-63
2022/05/08 13:37:54;;;;;;;9.73;3.17;;;;;;;;;;4987397;28;20242;-63
2022/05/08 13:40:21;;;;;;;8.77;3.13;;;;;;;;;;5003580;28;20284;-63
2022/05/08 13:42:48;;;;;;;8.93;3.00;;;;;;;;;;5007736;28;20614;-64
2022/05/08 13:45:15;;;;;;;10.93;3.63;;;;;;;;;;5014256;28;20218;-64
2022/05/08 13:47:42;;;;;;;8.23;3.13;;;;;;;;;;5006362;28;20731;-63
2022/05/08 13:50:10;;;;;;;7.53;3.10;;;;;;;;;;5006136;28;20290;-63
2022/05/08 13:52:37;;;;;;;10.33;4.20;;;;;;;;;;5005869;28;20214;-63
2022/05/08 13:55:06;;;;;;;7.10;2.90;;;;;;;;;;5010900;28;20615;-63
2022/05/08 13:57:35;;;;;;;5.37;2.60;;;;;;;;;;5002909;28;20187;-64
2022/05/08 14:00:02;;;;;;;8.30;3.13;;;;;;;;;;5001292;28;20234;-64
2022/05/08 14:02:32;;;;;;;6.70;2.80;;;;;;;;;;5004673;28;20211;-63
2022/05/08 14:04:59;;;;;;;7.37;2.93;;;;;;;;;;5000550;28;20893;-63
2022/05/08 14:07:27;;;;;;;7.23;2.90;;;;;;;;;;5001846;28;20186;-63
2022/05/08 14:09:55;;;;;;;8.43;3.20;;;;;;;;;;5002978;28;20204;-63
2022/05/08 14:12:22;;;;;;;5.33;2.50;;;;;;;;;;5002175;28;20208;-63
2022/05/08 14:14:49;;;;;;;9.03;2.30;;;;;;;;;;5014356;28;20274;-63
2022/05/08 14:17:16;;;;;;;4.73;2.30;;;;;;;;;;5003537;28;20291;-63
2022/05/08 14:19:43;;;;;;;8.13;2.80;;;;;;;;;;4992589;28;20234;-63
2022/05/08 14:22:10;;;;;;;6.03;2.60;;;;;;;;;;4999693;28;21112;-63
2022/05/08 14:24:38;;;;;;;6.60;2.30;;;;;;;;;;5003402;28;20199;-63
2022/05/08 14:27:08;;;;;;;4.53;2.10;;;;;;;;;;5001366;28;20220;-63
2022/05/08 14:29:37;;;;;;;5.23;2.10;;;;;;;;;;5009025;28;20719;-63
2022/05/08 14:37:37;;;;;;;5.00;2.10;;;;;;;;;;5010367;28;20629;-63
2022/05/08 14:40:04;;;;;;;4.30;2.17;;;;;;;;;;5012164;28;20235;-63
2022/05/08 14:42:31;;;;;;;4.50;2.20;;;;;;;;;;5011470;28;20195;-64
2022/05/08 14:45:04;;;;;;;3.87;2.07;;;;;;;;;;5001906;28;20743;-63
2022/05/08 14:47:32;;;;;;;4.23;1.87;;;;;;;;;;5009714;28;20652;-63
2022/05/08 14:49:59;;;;;;;5.63;2.30;;;;;;;;;;4999411;28;20207;-63
2022/05/08 14:52:26;;;;;;;3.63;1.80;;;;;;;;;;5008569;28;20649;-63
2022/05/08 14:54:54;;;;;;;3.90;1.90;;;;;;;;;;4992379;28;20672;-63
2022/05/08 14:57:21;;;;;;;3.63;1.90;;;;;;;;;;5007464;28;20199;-63
2022/05/08 14:59:48;;;;;;;3.00;1.70;;;;;;;;;;4988703;28;20239;-63
2022/05/08 15:02:15;;;;;;;3.10;1.70;;;;;;;;;;5003932;28;20228;-63
2022/05/08 15:04:44;;;;;;;3.17;1.80;;;;;;;;;;4994145;28;20236;-63
2022/05/08 15:07:12;;;;;;;3.27;1.60;;;;;;;;;;5013146;28;20241;-63
2022/05/08 15:09:40;;;;;;;3.90;1.73;;;;;;;;;;5008678;28;20210;-63
2022/05/08 15:12:08;;;;;;;3.77;1.73;;;;;;;;;;5006461;28;20242;-63
2022/05/08 15:14:35;;;;;;;2.70;1.53;;;;;;;;;;5007876;28;20216;-63
2022/05/08 15:17:02;;;;;;;2.23;1.47;;;;;;;;;;5014065;28;20196;-64
2022/05/08 15:19:29;;;;;;;4.50;1.80;;;;;;;;;;5004263;28;20253;-63
2022/05/08 15:21:58;;;;;;;2.30;1.40;;;;;;;;;;5007627;28;20204;-62
2022/05/08 15:24:27;;;;;;;7.77;1.60;;;;;;;;;;4990722;28;20247;-63
2022/05/08 15:26:54;;;;;;;3.87;1.80;;;;;;;;;;5011102;28;20281;-63
2022/05/08 15:29:22;;;;;;;5.50;2.13;;;;;;;;;;5006679;28;20637;-63
2022/05/08 15:31:49;;;;;;;5.43;2.03;;;;;;;;;;5008338;28;20215;-63
2022/05/08 15:34:16;;;;;;;12.57;2.67;;;;;;;;;;5004457;28;20239;-63
2022/05/08 15:36:43;;;;;;;8.83;2.43;;;;;;;;;;5007179;28;20204;-63
2022/05/08 15:39:10;;;;;;;10.90;2.07;;;;;;;;;;4996707;28;20226;-63